Briercrest, Canada
Current Conditions -  °F | °C
As of 8:17 AM on Saturday 20 Dec 2014 (Local Time) from CYQR Reporting Station
Light Snow Light Snow  
Wind Chill:   Ceiling: 400
Heat Index: 19°   Visibility: 6mi
Dew Point: 19°   Wind: 16mph
Humidity: 100%   Direction: 130°SE
Pressure: 29.77"   Gusts: NA
Location:  50.17°N, 105.27°W
Report Text: CYQR 201417Z 13014KT 6SM -SN BR OVC004 M07/M07 A2977 RMK ST8 SLP120
Loading
Personal Weather Stations






























Interactive Weather Map New forecast layout! Learn more

10-Day Weather Forecast

Advertisements
Track Severe Weather on mobile